createdAt,value
2023-03-26T00:00:55.958Z,8.11
2023-03-26T00:03:59.730Z,8.09
2023-03-26T00:07:03.198Z,8.03
2023-03-26T00:10:06.952Z,8.10
2023-03-26T00:13:10.748Z,8.01
2023-03-26T00:16:16.848Z,8.00
2023-03-26T00:19:19.883Z,7.89
2023-03-26T00:22:23.762Z,7.90
2023-03-26T00:25:27.358Z,7.93
2023-03-26T00:28:30.935Z,7.77
2023-03-26T00:31:35.974Z,7.82
2023-03-26T00:34:41.457Z,7.80
2023-03-26T00:37:46.169Z,7.94
2023-03-26T00:40:52.028Z,7.79
2023-03-26T00:43:58.921Z,7.94
2023-03-26T00:47:02.220Z,7.85
2023-03-26T00:50:06.386Z,7.91
2023-03-26T00:53:14.244Z,7.88
2023-03-26T00:56:18.747Z,7.77
2023-03-26T00:59:23.158Z,7.80
2023-03-26T01:02:27.446Z,7.78
2023-03-26T01:05:36.281Z,7.82
2023-03-26T01:09:00.526Z,7.83
2023-03-26T01:12:07.140Z,7.91
2023-03-26T01:15:10.627Z,7.89
2023-03-26T01:18:14.519Z,8.01
2023-03-26T01:21:22.873Z,8.07
2023-03-26T01:24:26.509Z,7.96
2023-03-26T01:27:35.975Z,7.85
2023-03-26T01:30:46.152Z,7.81
2023-03-26T01:33:57.181Z,7.68
2023-03-26T01:37:28.464Z,7.64
2023-03-26T01:40:43.158Z,7.45
2023-03-26T01:43:54.463Z,7.39
2023-03-26T01:47:00.350Z,7.29
2023-03-26T01:50:03.543Z,7.23
2023-03-26T01:53:09.236Z,7.19
2023-03-26T01:56:18.425Z,7.07
2023-03-26T01:59:38.272Z,6.94
2023-03-26T02:02:55.015Z,6.90
2023-03-26T02:06:42.726Z,6.88
2023-03-26T02:09:50.709Z,6.84
2023-03-26T02:12:54.794Z,6.78
2023-03-26T02:16:00.952Z,6.78
2023-03-26T02:19:04.601Z,6.79
2023-03-26T02:22:16.028Z,6.70
2023-03-26T02:25:21.629Z,6.68
2023-03-26T02:28:26.739Z,6.61
2023-03-26T02:31:30.424Z,6.67
2023-03-26T02:34:34.163Z,6.58
2023-03-26T02:37:37.560Z,6.54
2023-03-26T02:40:49.634Z,6.51
2023-03-26T02:43:53.616Z,6.49
2023-03-26T02:46:59.872Z,6.40
2023-03-26T02:50:24.198Z,6.38
2023-03-26T02:53:50.087Z,6.24
2023-03-26T02:57:14.345Z,6.11
2023-03-26T03:00:40.219Z,6.08
2023-03-26T03:04:13.676Z,6.03
2023-03-26T03:07:17.414Z,6.13
2023-03-26T03:10:22.078Z,6.16
2023-03-26T03:13:45.495Z,6.16
2023-03-26T03:16:54.038Z,6.03
2023-03-26T03:19:59.114Z,5.91
2023-03-26T03:23:02.805Z,5.99
2023-03-26T03:26:14.368Z,6.07
2023-03-26T03:29:20.114Z,5.95
2023-03-26T03:32:24.120Z,5.91
2023-03-26T03:35:30.602Z,5.95
2023-03-26T03:38:39.418Z,5.91
2023-03-26T03:41:43.354Z,5.90
2023-03-26T03:44:50.031Z,5.98
2023-03-26T03:48:13.186Z,6.02
2023-03-26T03:51:20.186Z,5.94
2023-03-26T03:54:29.639Z,5.84
2023-03-26T03:57:47.731Z,5.81
2023-03-26T04:01:04.473Z,5.78
2023-03-26T04:04:32.983Z,5.67
2023-03-26T04:07:40.593Z,5.69
2023-03-26T04:10:55.772Z,5.78
2023-03-26T04:14:19.303Z,5.78
2023-03-26T04:17:33.054Z,5.84
2023-03-26T04:20:38.844Z,5.80
2023-03-26T04:23:45.745Z,5.88
2023-03-26T04:27:20.498Z,5.95
2023-03-26T04:30:24.364Z,5.91
2023-03-26T04:33:35.247Z,5.85
2023-03-26T04:36:42.500Z,5.94
2023-03-26T04:39:45.901Z,5.92
2023-03-26T04:43:00.036Z,5.96
2023-03-26T04:46:23.700Z,6.16
2023-03-26T04:49:42.114Z,6.15
2023-03-26T04:52:46.503Z,6.17
2023-03-26T04:56:26.549Z,6.28
2023-03-26T04:59:48.086Z,6.54
2023-03-26T05:02:54.410Z,6.74
2023-03-26T05:05:59.568Z,7.02
2023-03-26T05:09:03.299Z,7.07
2023-03-26T05:12:26.651Z,7.81
2023-03-26T05:15:35.776Z,8.63
2023-03-26T05:18:49.132Z,9.44
2023-03-26T05:21:52.978Z,9.62
2023-03-26T05:24:56.413Z,9.88
2023-03-26T05:27:59.759Z,9.95
2023-03-26T05:31:10.393Z,9.67
2023-03-26T05:34:16.469Z,9.29
2023-03-26T05:37:20.510Z,8.92
2023-03-26T05:40:38.764Z,8.82
2023-03-26T05:43:47.876Z,8.77
2023-03-26T05:47:04.027Z,8.74
2023-03-26T05:50:08.565Z,8.75
2023-03-26T05:53:15.148Z,10.09
2023-03-26T05:56:41.763Z,11.79
2023-03-26T06:00:11.190Z,12.62
2023-03-26T06:03:20.218Z,13.37
2023-03-26T06:06:47.306Z,13.28
2023-03-26T06:09:50.868Z,13.57
2023-03-26T06:12:54.154Z,14.31
2023-03-26T06:16:00.722Z,14.79
2023-03-26T06:19:09.852Z,15.23
2023-03-26T06:22:25.993Z,15.53
2023-03-26T06:25:48.313Z,15.76
2023-03-26T06:29:10.666Z,15.80
2023-03-26T06:32:32.299Z,15.41
2023-03-26T06:35:46.021Z,15.67
2023-03-26T06:38:51.445Z,15.29
2023-03-26T06:41:54.968Z,15.65
2023-03-26T06:45:17.674Z,15.72
2023-03-26T06:48:42.326Z,16.17
2023-03-26T06:52:23.751Z,16.24
2023-03-26T06:55:45.697Z,16.67
2023-03-26T06:59:02.195Z,16.70
2023-03-26T07:02:24.564Z,16.53
2023-03-26T07:05:47.933Z,16.43
2023-03-26T07:09:09.771Z,16.53
2023-03-26T07:12:46.167Z,16.60
2023-03-26T07:15:58.890Z,16.78
2023-03-26T07:19:22.400Z,16.16
2023-03-26T07:22:26.276Z,15.87
2023-03-26T07:25:49.747Z,15.24
2023-03-26T07:29:08.841Z,14.75
2023-03-26T07:32:38.668Z,15.48
2023-03-26T07:36:16.631Z,15.65
2023-03-26T07:39:54.597Z,15.22
2023-03-26T07:43:24.060Z,14.98
2023-03-26T07:46:53.521Z,15.62
2023-03-26T07:50:23.750Z,16.17
2023-03-26T07:53:47.642Z,16.29
2023-03-26T07:57:44.429Z,16.32
2023-03-26T08:01:13.571Z,16.69
2023-03-26T08:04:38.936Z,16.81
2023-03-26T08:08:16.711Z,17.08
2023-03-26T08:12:01.478Z,16.92
2023-03-26T08:15:39.437Z,16.18
2023-03-26T08:18:51.279Z,16.15
2023-03-26T08:22:02.223Z,15.51
2023-03-26T08:25:40.620Z,15.29
2023-03-26T08:28:49.289Z,15.51
2023-03-26T08:31:53.625Z,16.19
2023-03-26T08:34:57.753Z,16.78
2023-03-26T08:38:00.913Z,17.34
2023-03-26T08:41:15.167Z,17.76
2023-03-26T08:44:21.394Z,17.69
2023-03-26T08:47:49.561Z,17.71
2023-03-26T08:50:59.523Z,17.89
2023-03-26T08:54:21.657Z,18.36
2023-03-26T08:57:34.078Z,18.36
2023-03-26T09:00:59.138Z,18.19
2023-03-26T09:04:29.554Z,17.77
2023-03-26T09:08:04.322Z,17.81
2023-03-26T09:11:38.019Z,17.85
2023-03-26T09:15:05.377Z,17.46
2023-03-26T09:18:11.653Z,17.08
2023-03-26T09:21:31.651Z,17.58
2023-03-26T09:24:53.614Z,17.68
2023-03-26T09:28:05.802Z,18.20
2023-03-26T09:31:27.486Z,18.41
2023-03-26T09:35:08.104Z,18.77
2023-03-26T09:38:39.275Z,18.65
2023-03-26T09:42:03.839Z,18.38
2023-03-26T09:45:33.804Z,18.87
2023-03-26T09:48:48.983Z,19.11
2023-03-26T09:52:36.312Z,19.03
2023-03-26T09:55:40.582Z,19.43
2023-03-26T09:59:05.247Z,18.70
2023-03-26T10:02:46.733Z,18.79
2023-03-26T10:06:12.143Z,18.27
2023-03-26T10:09:29.979Z,18.34
2023-03-26T10:12:46.321Z,18.73
2023-03-26T10:16:28.391Z,19.16
2023-03-26T10:19:44.052Z,18.78
2023-03-26T10:22:50.501Z,18.83
2023-03-26T10:26:36.837Z,19.12
2023-03-26T10:30:17.164Z,19.95
2023-03-26T10:33:41.826Z,19.97
2023-03-26T10:36:52.250Z,20.26
2023-03-26T10:40:20.013Z,20.08
2023-03-26T10:43:43.383Z,20.06
2023-03-26T10:47:31.431Z,20.56
2023-03-26T10:50:55.751Z,20.67
2023-03-26T10:54:15.568Z,21.07
2023-03-26T10:57:39.623Z,21.21
2023-03-26T11:01:02.615Z,20.62
2023-03-26T11:04:32.634Z,20.88
2023-03-26T11:07:36.904Z,20.60
2023-03-26T11:10:56.344Z,20.83
2023-03-26T11:14:09.609Z,20.55
2023-03-26T11:17:40.334Z,20.33
2023-03-26T11:21:19.833Z,20.16
2023-03-26T11:25:03.264Z,20.59
2023-03-26T11:28:29.066Z,20.61
2023-03-26T11:32:00.609Z,20.81
2023-03-26T11:35:40.368Z,20.70
2023-03-26T11:38:51.383Z,20.44
2023-03-26T11:42:11.450Z,20.87
2023-03-26T11:45:24.418Z,21.01
2023-03-26T11:48:30.595Z,20.72
2023-03-26T11:51:38.480Z,20.58
2023-03-26T11:54:43.589Z,20.12
2023-03-26T11:57:54.162Z,20.24
2023-03-26T12:00:59.276Z,20.26
2023-03-26T12:04:17.343Z,20.41
2023-03-26T12:07:32.692Z,20.95
2023-03-26T12:10:43.074Z,20.74
2023-03-26T12:13:58.220Z,20.47
2023-03-26T12:17:08.119Z,20.20
2023-03-26T12:20:36.146Z,20.12
2023-03-26T12:23:39.574Z,20.34
2023-03-26T12:26:49.098Z,20.05
2023-03-26T12:30:00.287Z,20.04
2023-03-26T12:33:15.178Z,19.95
2023-03-26T12:36:29.281Z,19.71
2023-03-26T12:40:07.964Z,19.71
2023-03-26T12:44:49.666Z,19.23
2023-03-26T12:47:57.670Z,19.29
2023-03-26T12:50:57.562Z,19.50
2023-03-26T12:54:16.782Z,19.43
2023-03-26T12:57:23.077Z,19.28
2023-03-26T13:01:11.360Z,19.12
2023-03-26T13:05:02.347Z,19.15
2023-03-26T13:08:35.505Z,19.13
2023-03-26T13:12:02.064Z,18.80
2023-03-26T13:15:33.239Z,18.70
2023-03-26T13:18:49.938Z,18.77
2023-03-26T13:22:20.027Z,18.59
2023-03-26T13:25:36.756Z,18.69
2023-03-26T13:29:08.072Z,18.61
2023-03-26T13:32:23.596Z,18.46
2023-03-26T13:35:38.811Z,18.54
2023-03-26T13:39:09.545Z,18.45
2023-03-26T13:42:48.194Z,18.32
2023-03-26T13:46:03.157Z,18.15
2023-03-26T13:49:16.809Z,18.14
2023-03-26T13:52:47.163Z,18.00
2023-03-26T13:55:59.482Z,18.00
2023-03-26T13:59:11.142Z,17.95
2023-03-26T14:02:25.915Z,17.96
2023-03-26T14:05:51.714Z,18.01
2023-03-26T14:09:23.187Z,17.82
2023-03-26T14:12:49.484Z,17.86
2023-03-26T14:16:14.355Z,17.77
2023-03-26T14:19:50.168Z,17.79
2023-03-26T14:23:08.953Z,17.76
2023-03-26T14:26:33.001Z,17.67
2023-03-26T14:30:07.057Z,17.65
2023-03-26T14:33:27.034Z,17.53
2023-03-26T14:36:59.334Z,17.47
2023-03-26T14:40:17.421Z,17.45
2023-03-26T14:43:49.002Z,17.38
2023-03-26T14:47:20.950Z,17.31
2023-03-26T14:50:37.670Z,17.20
2023-03-26T14:53:51.627Z,17.12
2023-03-26T14:56:54.821Z,17.11
2023-03-26T15:00:15.947Z,17.12
2023-03-26T15:03:58.246Z,17.11
2023-03-26T15:07:07.063Z,17.02
2023-03-26T15:10:43.471Z,17.06
2023-03-26T15:14:14.372Z,16.98
2023-03-26T15:17:39.137Z,16.89
2023-03-26T15:21:09.905Z,16.77
2023-03-26T15:24:36.897Z,16.67
2023-03-26T15:27:54.245Z,16.59
2023-03-26T15:31:10.959Z,16.58
2023-03-26T15:34:44.215Z,16.47
2023-03-26T15:38:25.167Z,16.60
2023-03-26T15:41:47.222Z,16.58
2023-03-26T15:44:56.670Z,16.51
2023-03-26T15:48:12.509Z,16.55
2023-03-26T15:51:47.472Z,16.51
2023-03-26T15:55:09.686Z,16.46
2023-03-26T15:58:25.329Z,16.44
2023-03-26T16:01:46.670Z,16.38
2023-03-26T16:04:54.673Z,16.24
2023-03-26T16:08:03.049Z,16.26
2023-03-26T16:11:12.815Z,16.04
2023-03-26T16:14:23.587Z,15.81
2023-03-26T16:17:27.982Z,15.68
2023-03-26T16:20:51.043Z,15.46
2023-03-26T16:23:57.964Z,15.48
2023-03-26T16:27:13.009Z,15.58
2023-03-26T16:30:31.732Z,15.50
2023-03-26T16:33:39.624Z,15.47
2023-03-26T16:36:50.109Z,15.48
2023-03-26T16:39:54.248Z,15.35
2023-03-26T16:43:06.788Z,15.40
2023-03-26T16:46:42.756Z,15.24
2023-03-26T16:50:12.277Z,15.07
2023-03-26T16:53:43.697Z,14.84
2023-03-26T16:56:53.530Z,14.87
2023-03-26T17:00:07.143Z,14.75
2023-03-26T17:03:32.048Z,14.72
2023-03-26T17:07:08.707Z,14.68
2023-03-26T17:10:16.005Z,14.65
2023-03-26T17:13:41.460Z,14.62
2023-03-26T17:16:48.337Z,14.66
2023-03-26T17:20:33.423Z,14.74
2023-03-26T17:23:39.663Z,14.62
2023-03-26T17:26:56.999Z,14.67
2023-03-26T17:30:21.392Z,14.57
2023-03-26T17:33:31.828Z,14.58
2023-03-26T17:36:43.415Z,14.63
2023-03-26T17:39:47.177Z,14.60
2023-03-26T17:43:03.280Z,14.55
2023-03-26T17:46:33.774Z,14.56
2023-03-26T17:49:39.789Z,14.46
2023-03-26T17:52:52.010Z,14.44
2023-03-26T17:56:03.249Z,14.45
2023-03-26T17:59:12.437Z,14.44
2023-03-26T18:02:22.531Z,14.41
2023-03-26T18:05:29.983Z,14.52
2023-03-26T18:08:47.539Z,14.58
2023-03-26T18:12:06.535Z,14.61
2023-03-26T18:15:46.494Z,14.68
2023-03-26T18:18:49.843Z,14.80
2023-03-26T18:21:56.928Z,14.74
2023-03-26T18:25:02.458Z,14.72
2023-03-26T18:28:06.175Z,14.87
2023-03-26T18:31:24.127Z,14.77
2023-03-26T18:34:31.780Z,14.76
2023-03-26T18:37:38.718Z,14.72
2023-03-26T18:40:44.255Z,14.73
2023-03-26T18:43:47.811Z,14.71
2023-03-26T18:46:54.835Z,14.72
2023-03-26T18:49:59.820Z,14.68
2023-03-26T18:53:06.701Z,14.74
2023-03-26T18:56:31.925Z,14.72
2023-03-26T18:59:41.197Z,14.74
2023-03-26T19:02:48.179Z,14.77
2023-03-26T19:05:56.925Z,14.73
2023-03-26T19:09:01.611Z,14.56
2023-03-26T19:12:16.255Z,14.44
2023-03-26T19:15:21.094Z,14.44
2023-03-26T19:18:27.781Z,14.45
2023-03-26T19:21:33.286Z,14.37
2023-03-26T19:24:37.241Z,14.32
2023-03-26T19:27:41.035Z,14.34
2023-03-26T19:30:45.727Z,14.33
2023-03-26T19:34:05.174Z,14.24
2023-03-26T19:37:25.803Z,14.13
2023-03-26T19:40:33.885Z,14.12
2023-03-26T19:43:36.942Z,14.09
2023-03-26T19:46:53.237Z,14.11
2023-03-26T19:50:01.866Z,14.04
2023-03-26T19:53:17.107Z,13.94
2023-03-26T19:56:24.941Z,13.88
2023-03-26T19:59:28.078Z,13.89
2023-03-26T20:02:32.691Z,13.69
2023-03-26T20:05:36.660Z,13.61
2023-03-26T20:08:43.340Z,13.63
2023-03-26T20:11:47.273Z,13.60
2023-03-26T20:14:50.468Z,13.52
2023-03-26T20:17:53.911Z,13.39
2023-03-26T20:20:58.968Z,13.44
2023-03-26T20:24:03.192Z,13.47
2023-03-26T20:27:06.476Z,13.41
2023-03-26T20:30:12.120Z,13.34
2023-03-26T20:33:27.767Z,13.32
2023-03-26T20:36:33.721Z,13.21
2023-03-26T20:39:38.030Z,13.06
2023-03-26T20:42:47.553Z,13.07
2023-03-26T20:45:52.132Z,12.94
2023-03-26T20:48:57.291Z,12.97
2023-03-26T20:52:01.194Z,12.50
2023-03-26T20:55:06.438Z,12.36
2023-03-26T20:58:15.071Z,12.09
2023-03-26T21:01:19.357Z,12.07
2023-03-26T21:04:25.070Z,12.02
2023-03-26T21:07:28.765Z,12.06
2023-03-26T21:10:37.308Z,12.06
2023-03-26T21:13:46.947Z,12.07
2023-03-26T21:16:50.390Z,11.91
2023-03-26T21:19:54.033Z,11.89
2023-03-26T21:23:35.564Z,11.92
2023-03-26T21:26:56.520Z,11.86
2023-03-26T21:30:16.567Z,11.88
2023-03-26T21:33:20.468Z,11.82
2023-03-26T21:36:24.001Z,11.69
2023-03-26T21:39:28.342Z,11.63
2023-03-26T21:42:32.053Z,11.63
2023-03-26T21:45:35.343Z,11.48
2023-03-26T21:48:38.988Z,11.52
2023-03-26T21:51:42.971Z,11.48
2023-03-26T21:54:46.879Z,11.47
2023-03-26T21:58:01.998Z,11.20
2023-03-26T22:01:15.768Z,11.15
2023-03-26T22:04:45.484Z,10.65
2023-03-26T22:07:57.072Z,10.51
2023-03-26T22:11:00.766Z,10.22
2023-03-26T22:14:05.184Z,10.22
2023-03-26T22:17:08.803Z,9.97
2023-03-26T22:20:15.109Z,9.84
2023-03-26T22:23:18.429Z,9.97
2023-03-26T22:26:26.194Z,9.90
2023-03-26T22:29:30.067Z,9.94
2023-03-26T22:32:34.381Z,9.83
2023-03-26T22:35:39.037Z,9.89
2023-03-26T22:38:42.308Z,9.83
2023-03-26T22:41:45.473Z,9.77
2023-03-26T22:44:49.333Z,9.63
2023-03-26T22:47:52.976Z,9.72
2023-03-26T22:51:09.205Z,9.72
2023-03-26T22:54:12.396Z,9.77
2023-03-26T22:57:16.562Z,9.73
2023-03-26T23:00:22.138Z,9.68
2023-03-26T23:03:35.344Z,9.60
2023-03-26T23:06:38.820Z,9.79
2023-03-26T23:09:42.279Z,9.71
2023-03-26T23:12:45.871Z,9.71
2023-03-26T23:15:51.309Z,9.79
2023-03-26T23:18:54.523Z,9.76
2023-03-26T23:21:57.664Z,9.83
2023-03-26T23:25:00.832Z,9.72
2023-03-26T23:28:04.869Z,9.75
2023-03-26T23:31:10.056Z,9.88
2023-03-26T23:34:13.761Z,9.82
2023-03-26T23:37:23.179Z,9.84
2023-03-26T23:40:28.304Z,9.83
2023-03-26T23:43:32.896Z,9.82
2023-03-26T23:46:36.451Z,9.69
2023-03-26T23:49:39.648Z,9.75
2023-03-26T23:52:45.859Z,9.70
2023-03-26T23:55:51.323Z,9.60
2023-03-26T23:58:56.316Z,9.59
